sensor_id;sensor_type;location;lat;lon;timestamp;P1;durP1;ratioP1;P2;durP2;ratioP2
55497;SDS011;41357;52.806;18.268;2023-02-26T00:02:07;3.22;;;1.73;;
55497;SDS011;41357;52.806;18.268;2023-02-26T00:04:34;6.85;;;1.90;;
55497;SDS011;41357;52.806;18.268;2023-02-26T00:07:01;4.63;;;1.45;;
55497;SDS011;41357;52.806;18.268;2023-02-26T00:09:28;3.28;;;0.77;;
55497;SDS011;41357;52.806;18.268;2023-02-26T00:11:55;2.38;;;1.20;;
55497;SDS011;41357;52.806;18.268;2023-02-26T00:14:21;4.50;;;1.30;;
55497;SDS011;41357;52.806;18.268;2023-02-26T00:16:57;1.63;;;0.93;;
55497;SDS011;41357;52.806;18.268;2023-02-26T00:19:30;3.00;;;1.17;;
55497;SDS011;41357;52.806;18.268;2023-02-26T00:21:56;3.45;;;1.17;;
55497;SDS011;41357;52.806;18.268;2023-02-26T00:24:23;4.28;;;1.50;;
55497;SDS011;41357;52.806;18.268;2023-02-26T00:26:49;5.68;;;1.60;;
55497;SDS011;41357;52.806;18.268;2023-02-26T00:29:15;4.35;;;1.50;;
55497;SDS011;41357;52.806;18.268;2023-02-26T00:31:41;7.85;;;1.67;;
55497;SDS011;41357;52.806;18.268;2023-02-26T00:34:09;8.10;;;2.10;;
55497;SDS011;41357;52.806;18.268;2023-02-26T00:36:39;5.88;;;1.67;;
55497;SDS011;41357;52.806;18.268;2023-02-26T00:39:16;5.25;;;1.05;;
55497;SDS011;41357;52.806;18.268;2023-02-26T00:41:47;7.15;;;1.70;;
55497;SDS011;41357;52.806;18.268;2023-02-26T00:44:13;2.72;;;1.13;;
55497;SDS011;41357;52.806;18.268;2023-02-26T00:46:53;1.50;;;0.95;;
55497;SDS011;41357;52.806;18.268;2023-02-26T00:52:05;3.22;;;1.08;;
55497;SDS011;41357;52.806;18.268;2023-02-26T00:54:36;3.30;;;0.85;;
55497;SDS011;41357;52.806;18.268;2023-02-26T00:57:03;3.40;;;1.30;;
55497;SDS011;41357;52.806;18.268;2023-02-26T00:59:30;2.92;;;1.00;;
55497;SDS011;41357;52.806;18.268;2023-02-26T01:01:56;2.60;;;1.17;;
55497;SDS011;41357;52.806;18.268;2023-02-26T01:04:23;6.22;;;0.90;;
55497;SDS011;41357;52.806;18.268;2023-02-26T01:06:51;3.70;;;1.15;;
55497;SDS011;41357;52.806;18.268;2023-02-26T01:09:25;1.45;;;0.95;;
55497;SDS011;41357;52.806;18.268;2023-02-26T01:11:52;2.85;;;1.17;;
55497;SDS011;41357;52.806;18.268;2023-02-26T01:14:19;1.80;;;1.17;;
55497;SDS011;41357;52.806;18.268;2023-02-26T01:19:32;4.70;;;1.58;;
55497;SDS011;41357;52.806;18.268;2023-02-26T01:22:02;2.17;;;1.30;;
55497;SDS011;41357;52.806;18.268;2023-02-26T01:24:29;2.80;;;1.42;;
55497;SDS011;41357;52.806;18.268;2023-02-26T01:26:55;2.60;;;1.30;;
55497;SDS011;41357;52.806;18.268;2023-02-26T01:29:22;2.78;;;1.42;;
55497;SDS011;41357;52.806;18.268;2023-02-26T01:34:18;8.88;;;1.70;;
55497;SDS011;41357;52.806;18.268;2023-02-26T01:36:51;4.73;;;1.47;;
55497;SDS011;41357;52.806;18.268;2023-02-26T01:41:52;2.78;;;1.02;;
55497;SDS011;41357;52.806;18.268;2023-02-26T01:44:26;3.17;;;0.75;;
55497;SDS011;41357;52.806;18.268;2023-02-26T01:49:39;6.15;;;1.02;;
55497;SDS011;41357;52.806;18.268;2023-02-26T01:52:06;3.20;;;1.00;;
55497;SDS011;41357;52.806;18.268;2023-02-26T01:54:34;4.57;;;1.40;;
55497;SDS011;41357;52.806;18.268;2023-02-26T01:57:01;2.13;;;1.05;;
55497;SDS011;41357;52.806;18.268;2023-02-26T01:59:29;4.60;;;1.27;;
55497;SDS011;41357;52.806;18.268;2023-02-26T02:01:56;2.70;;;1.25;;
55497;SDS011;41357;52.806;18.268;2023-02-26T02:04:22;3.20;;;1.15;;
55497;SDS011;41357;52.806;18.268;2023-02-26T02:06:49;2.63;;;1.00;;
55497;SDS011;41357;52.806;18.268;2023-02-26T02:09:15;2.60;;;1.40;;
55497;SDS011;41357;52.806;18.268;2023-02-26T02:11:45;1.80;;;0.88;;
55497;SDS011;41357;52.806;18.268;2023-02-26T02:14:18;4.63;;;1.00;;
55497;SDS011;41357;52.806;18.268;2023-02-26T02:22:21;3.78;;;1.20;;
55497;SDS011;41357;52.806;18.268;2023-02-26T02:25:06;1.85;;;1.08;;
55497;SDS011;41357;52.806;18.268;2023-02-26T02:32:52;1.88;;;0.80;;
55497;SDS011;41357;52.806;18.268;2023-02-26T02:35:21;2.47;;;1.02;;
55497;SDS011;41357;52.806;18.268;2023-02-26T02:37:50;2.45;;;1.08;;
55497;SDS011;41357;52.806;18.268;2023-02-26T02:40:21;6.25;;;1.33;;
55497;SDS011;41357;52.806;18.268;2023-02-26T02:47:45;3.10;;;1.20;;
55497;SDS011;41357;52.806;18.268;2023-02-26T02:50:15;3.47;;;1.40;;
55497;SDS011;41357;52.806;18.268;2023-02-26T02:52:47;1.60;;;1.00;;
55497;SDS011;41357;52.806;18.268;2023-02-26T02:55:19;4.85;;;1.30;;
55497;SDS011;41357;52.806;18.268;2023-02-26T02:58:09;3.55;;;1.70;;
55497;SDS011;41357;52.806;18.268;2023-02-26T03:00:33;3.13;;;1.00;;
55497;SDS011;41357;52.806;18.268;2023-02-26T03:05:27;5.10;;;1.40;;
55497;SDS011;41357;52.806;18.268;2023-02-26T03:07:59;2.63;;;1.00;;
55497;SDS011;41357;52.806;18.268;2023-02-26T03:10:26;4.20;;;1.48;;
55497;SDS011;41357;52.806;18.268;2023-02-26T03:12:52;4.18;;;1.20;;
55497;SDS011;41357;52.806;18.268;2023-02-26T03:15:21;1.45;;;0.85;;
55497;SDS011;41357;52.806;18.268;2023-02-26T03:20:35;4.55;;;1.35;;
55497;SDS011;41357;52.806;18.268;2023-02-26T03:25:30;4.50;;;1.20;;
55497;SDS011;41357;52.806;18.268;2023-02-26T03:30:47;6.57;;;0.82;;
55497;SDS011;41357;52.806;18.268;2023-02-26T03:33:19;3.05;;;0.98;;
55497;SDS011;41357;52.806;18.268;2023-02-26T03:35:52;4.20;;;0.93;;
55497;SDS011;41357;52.806;18.268;2023-02-26T03:38:35;2.17;;;1.02;;
55497;SDS011;41357;52.806;18.268;2023-02-26T03:41:03;1.95;;;0.88;;
55497;SDS011;41357;52.806;18.268;2023-02-26T03:43:53;3.42;;;1.25;;
55497;SDS011;41357;52.806;18.268;2023-02-26T03:46:18;2.80;;;1.13;;
55497;SDS011;41357;52.806;18.268;2023-02-26T03:48:47;3.08;;;1.20;;
55497;SDS011;41357;52.806;18.268;2023-02-26T03:51:15;4.28;;;0.98;;
55497;SDS011;41357;52.806;18.268;2023-02-26T03:53:50;4.25;;;1.17;;
55497;SDS011;41357;52.806;18.268;2023-02-26T03:58:45;2.03;;;1.17;;
55497;SDS011;41357;52.806;18.268;2023-02-26T04:01:19;2.08;;;0.77;;
55497;SDS011;41357;52.806;18.268;2023-02-26T04:03:56;2.80;;;1.38;;
55497;SDS011;41357;52.806;18.268;2023-02-26T04:06:24;3.90;;;1.35;;
55497;SDS011;41357;52.806;18.268;2023-02-26T04:08:51;3.28;;;1.30;;
55497;SDS011;41357;52.806;18.268;2023-02-26T04:11:18;2.33;;;1.20;;
55497;SDS011;41357;52.806;18.268;2023-02-26T04:13:45;1.95;;;0.65;;
55497;SDS011;41357;52.806;18.268;2023-02-26T04:16:11;4.03;;;1.02;;
55497;SDS011;41357;52.806;18.268;2023-02-26T04:18:37;1.58;;;0.77;;
55497;SDS011;41357;52.806;18.268;2023-02-26T04:21:04;3.40;;;1.17;;
55497;SDS011;41357;52.806;18.268;2023-02-26T04:23:31;1.35;;;0.65;;
55497;SDS011;41357;52.806;18.268;2023-02-26T04:25:57;1.38;;;0.90;;
55497;SDS011;41357;52.806;18.268;2023-02-26T04:28:23;2.28;;;0.90;;
55497;SDS011;41357;52.806;18.268;2023-02-26T04:30:49;2.25;;;0.90;;
55497;SDS011;41357;52.806;18.268;2023-02-26T04:33:15;2.80;;;0.85;;
55497;SDS011;41357;52.806;18.268;2023-02-26T04:35:41;4.38;;;1.05;;
55497;SDS011;41357;52.806;18.268;2023-02-26T04:38:07;2.15;;;0.90;;
55497;SDS011;41357;52.806;18.268;2023-02-26T04:40:34;2.53;;;1.17;;
55497;SDS011;41357;52.806;18.268;2023-02-26T04:43:00;3.13;;;1.35;;
55497;SDS011;41357;52.806;18.268;2023-02-26T04:45:27;6.03;;;0.85;;
55497;SDS011;41357;52.806;18.268;2023-02-26T04:47:53;2.50;;;1.13;;
55497;SDS011;41357;52.806;18.268;2023-02-26T04:50:19;8.43;;;1.33;;
55497;SDS011;41357;52.806;18.268;2023-02-26T04:52:45;6.28;;;1.38;;
55497;SDS011;41357;52.806;18.268;2023-02-26T04:55:11;2.17;;;0.82;;
55497;SDS011;41357;52.806;18.268;2023-02-26T04:57:37;1.50;;;1.05;;
55497;SDS011;41357;52.806;18.268;2023-02-26T05:00:03;3.60;;;1.10;;
55497;SDS011;41357;52.806;18.268;2023-02-26T05:02:33;4.25;;;0.70;;
55497;SDS011;41357;52.806;18.268;2023-02-26T05:04:59;1.90;;;0.70;;
55497;SDS011;41357;52.806;18.268;2023-02-26T05:07:25;2.20;;;0.70;;
55497;SDS011;41357;52.806;18.268;2023-02-26T05:09:51;2.17;;;0.75;;
55497;SDS011;41357;52.806;18.268;2023-02-26T05:12:17;2.60;;;0.85;;
55497;SDS011;41357;52.806;18.268;2023-02-26T05:14:43;1.50;;;0.77;;
55497;SDS011;41357;52.806;18.268;2023-02-26T05:17:09;3.60;;;0.95;;
55497;SDS011;41357;52.806;18.268;2023-02-26T05:19:36;1.45;;;0.77;;
55497;SDS011;41357;52.806;18.268;2023-02-26T05:22:02;2.92;;;1.00;;
55497;SDS011;41357;52.806;18.268;2023-02-26T05:24:28;2.65;;;1.23;;
55497;SDS011;41357;52.806;18.268;2023-02-26T05:26:54;1.58;;;0.98;;
55497;SDS011;41357;52.806;18.268;2023-02-26T05:29:20;1.48;;;0.77;;
55497;SDS011;41357;52.806;18.268;2023-02-26T05:31:46;2.17;;;0.88;;
55497;SDS011;41357;52.806;18.268;2023-02-26T05:34:12;2.28;;;1.10;;
55497;SDS011;41357;52.806;18.268;2023-02-26T05:36:38;1.50;;;0.90;;
55497;SDS011;41357;52.806;18.268;2023-02-26T05:39:04;2.22;;;0.77;;
55497;SDS011;41357;52.806;18.268;2023-02-26T05:41:30;4.40;;;1.02;;
55497;SDS011;41357;52.806;18.268;2023-02-26T05:43:56;2.53;;;0.88;;
55497;SDS011;41357;52.806;18.268;2023-02-26T05:46:23;1.33;;;0.93;;
55497;SDS011;41357;52.806;18.268;2023-02-26T05:48:49;5.90;;;1.20;;
55497;SDS011;41357;52.806;18.268;2023-02-26T05:51:15;2.38;;;1.27;;
55497;SDS011;41357;52.806;18.268;2023-02-26T05:53:41;4.88;;;1.20;;
55497;SDS011;41357;52.806;18.268;2023-02-26T05:56:07;7.45;;;1.20;;
55497;SDS011;41357;52.806;18.268;2023-02-26T05:58:33;1.38;;;0.57;;
55497;SDS011;41357;52.806;18.268;2023-02-26T06:00:59;3.42;;;0.70;;
55497;SDS011;41357;52.806;18.268;2023-02-26T06:03:25;5.82;;;1.10;;
55497;SDS011;41357;52.806;18.268;2023-02-26T06:05:52;3.38;;;1.23;;
55497;SDS011;41357;52.806;18.268;2023-02-26T06:08:18;3.53;;;0.85;;
55497;SDS011;41357;52.806;18.268;2023-02-26T06:10:44;0.52;;;0.30;;
55497;SDS011;41357;52.806;18.268;2023-02-26T06:13:10;2.08;;;0.68;;
55497;SDS011;41357;52.806;18.268;2023-02-26T06:15:36;1.33;;;0.88;;
55497;SDS011;41357;52.806;18.268;2023-02-26T06:18:02;2.15;;;1.05;;
55497;SDS011;41357;52.806;18.268;2023-02-26T06:20:28;2.05;;;0.80;;
55497;SDS011;41357;52.806;18.268;2023-02-26T06:22:54;2.72;;;0.80;;
55497;SDS011;41357;52.806;18.268;2023-02-26T06:25:20;1.98;;;0.55;;
55497;SDS011;41357;52.806;18.268;2023-02-26T06:27:46;1.50;;;0.55;;
55497;SDS011;41357;52.806;18.268;2023-02-26T06:30:12;3.53;;;0.80;;
55497;SDS011;41357;52.806;18.268;2023-02-26T06:32:38;1.23;;;0.73;;
55497;SDS011;41357;52.806;18.268;2023-02-26T06:35:05;1.58;;;0.70;;
55497;SDS011;41357;52.806;18.268;2023-02-26T06:37:31;1.55;;;0.70;;
55497;SDS011;41357;52.806;18.268;2023-02-26T06:39:57;3.88;;;1.17;;
55497;SDS011;41357;52.806;18.268;2023-02-26T06:42:23;0.93;;;0.35;;
55497;SDS011;41357;52.806;18.268;2023-02-26T06:44:49;1.58;;;0.77;;
55497;SDS011;41357;52.806;18.268;2023-02-26T06:47:15;1.95;;;0.60;;
55497;SDS011;41357;52.806;18.268;2023-02-26T06:49:41;1.25;;;0.70;;
55497;SDS011;41357;52.806;18.268;2023-02-26T06:52:07;2.33;;;1.15;;
55497;SDS011;41357;52.806;18.268;2023-02-26T06:54:33;7.18;;;2.33;;
55497;SDS011;41357;52.806;18.268;2023-02-26T06:57:00;3.03;;;1.63;;
55497;SDS011;41357;52.806;18.268;2023-02-26T06:59:27;5.70;;;2.03;;
55497;SDS011;41357;52.806;18.268;2023-02-26T07:01:53;3.08;;;1.33;;
55497;SDS011;41357;52.806;18.268;2023-02-26T07:04:19;1.95;;;0.90;;
55497;SDS011;41357;52.806;18.268;2023-02-26T07:06:45;5.40;;;0.95;;
55497;SDS011;41357;52.806;18.268;2023-02-26T07:09:11;3.08;;;1.27;;
55497;SDS011;41357;52.806;18.268;2023-02-26T07:11:37;2.28;;;0.88;;
55497;SDS011;41357;52.806;18.268;2023-02-26T07:14:04;2.47;;;1.00;;
55497;SDS011;41357;52.806;18.268;2023-02-26T07:16:30;5.93;;;1.98;;
55497;SDS011;41357;52.806;18.268;2023-02-26T07:18:56;5.07;;;2.00;;
55497;SDS011;41357;52.806;18.268;2023-02-26T07:21:22;3.00;;;1.35;;
55497;SDS011;41357;52.806;18.268;2023-02-26T07:23:48;2.22;;;1.40;;
55497;SDS011;41357;52.806;18.268;2023-02-26T07:26:14;4.93;;;1.73;;
55497;SDS011;41357;52.806;18.268;2023-02-26T07:28:41;2.42;;;1.40;;
55497;SDS011;41357;52.806;18.268;2023-02-26T07:31:07;5.28;;;2.58;;
55497;SDS011;41357;52.806;18.268;2023-02-26T07:33:33;6.25;;;2.83;;
55497;SDS011;41357;52.806;18.268;2023-02-26T07:36:00;4.53;;;2.15;;
55497;SDS011;41357;52.806;18.268;2023-02-26T07:38:26;2.67;;;1.42;;
55497;SDS011;41357;52.806;18.268;2023-02-26T07:40:55;2.42;;;1.40;;
55497;SDS011;41357;52.806;18.268;2023-02-26T07:43:22;3.50;;;1.35;;
55497;SDS011;41357;52.806;18.268;2023-02-26T07:45:51;6.60;;;1.45;;
55497;SDS011;41357;52.806;18.268;2023-02-26T07:48:18;5.15;;;2.00;;
55497;SDS011;41357;52.806;18.268;2023-02-26T07:50:44;6.05;;;1.90;;
55497;SDS011;41357;52.806;18.268;2023-02-26T07:53:11;6.55;;;1.55;;
55497;SDS011;41357;52.806;18.268;2023-02-26T07:55:37;4.63;;;1.80;;
55497;SDS011;41357;52.806;18.268;2023-02-26T07:58:03;2.80;;;1.40;;
55497;SDS011;41357;52.806;18.268;2023-02-26T08:00:29;7.35;;;1.58;;
55497;SDS011;41357;52.806;18.268;2023-02-26T08:02:55;2.83;;;1.30;;
55497;SDS011;41357;52.806;18.268;2023-02-26T08:05:21;5.00;;;1.80;;
55497;SDS011;41357;52.806;18.268;2023-02-26T08:07:48;3.83;;;1.42;;
55497;SDS011;41357;52.806;18.268;2023-02-26T08:10:14;3.53;;;1.60;;
55497;SDS011;41357;52.806;18.268;2023-02-26T08:12:40;2.15;;;1.05;;
55497;SDS011;41357;52.806;18.268;2023-02-26T08:15:06;1.73;;;0.80;;
55497;SDS011;41357;52.806;18.268;2023-02-26T08:17:33;5.25;;;1.58;;
55497;SDS011;41357;52.806;18.268;2023-02-26T08:19:59;4.53;;;1.35;;
55497;SDS011;41357;52.806;18.268;2023-02-26T08:22:28;1.77;;;1.13;;
55497;SDS011;41357;52.806;18.268;2023-02-26T08:24:54;6.10;;;2.33;;
55497;SDS011;41357;52.806;18.268;2023-02-26T08:27:20;5.40;;;2.03;;
55497;SDS011;41357;52.806;18.268;2023-02-26T08:29:46;3.85;;;2.10;;
55497;SDS011;41357;52.806;18.268;2023-02-26T08:32:14;3.70;;;1.60;;
55497;SDS011;41357;52.806;18.268;2023-02-26T08:34:41;2.35;;;1.35;;
55497;SDS011;41357;52.806;18.268;2023-02-26T08:37:07;5.68;;;1.30;;
55497;SDS011;41357;52.806;18.268;2023-02-26T08:39:35;4.13;;;2.08;;
55497;SDS011;41357;52.806;18.268;2023-02-26T08:42:06;5.15;;;2.03;;
55497;SDS011;41357;52.806;18.268;2023-02-26T08:44:32;5.38;;;1.63;;
55497;SDS011;41357;52.806;18.268;2023-02-26T08:46:58;12.98;;;2.55;;
55497;SDS011;41357;52.806;18.268;2023-02-26T08:49:24;6.93;;;2.40;;
55497;SDS011;41357;52.806;18.268;2023-02-26T08:51:51;8.60;;;5.13;;
55497;SDS011;41357;52.806;18.268;2023-02-26T08:54:17;8.27;;;3.30;;
55497;SDS011;41357;52.806;18.268;2023-02-26T08:56:43;7.38;;;2.22;;
55497;SDS011;41357;52.806;18.268;2023-02-26T08:59:09;4.75;;;1.98;;
55497;SDS011;41357;52.806;18.268;2023-02-26T09:01:37;3.90;;;2.13;;
55497;SDS011;41357;52.806;18.268;2023-02-26T09:04:03;4.35;;;1.90;;
55497;SDS011;41357;52.806;18.268;2023-02-26T09:06:29;8.02;;;2.30;;
55497;SDS011;41357;52.806;18.268;2023-02-26T09:08:55;6.18;;;1.88;;
55497;SDS011;41357;52.806;18.268;2023-02-26T09:11:21;5.00;;;1.75;;
55497;SDS011;41357;52.806;18.268;2023-02-26T09:13:47;4.63;;;1.67;;
55497;SDS011;41357;52.806;18.268;2023-02-26T09:16:13;2.35;;;1.10;;
55497;SDS011;41357;52.806;18.268;2023-02-26T09:18:40;5.13;;;2.10;;
55497;SDS011;41357;52.806;18.268;2023-02-26T09:21:06;6.00;;;1.75;;
55497;SDS011;41357;52.806;18.268;2023-02-26T09:23:32;4.05;;;1.50;;
55497;SDS011;41357;52.806;18.268;2023-02-26T09:25:58;7.25;;;2.75;;
55497;SDS011;41357;52.806;18.268;2023-02-26T09:28:25;3.40;;;1.35;;
55497;SDS011;41357;52.806;18.268;2023-02-26T09:30:51;3.97;;;1.75;;
55497;SDS011;41357;52.806;18.268;2023-02-26T09:33:19;4.15;;;2.00;;
55497;SDS011;41357;52.806;18.268;2023-02-26T09:35:49;3.08;;;1.70;;
55497;SDS011;41357;52.806;18.268;2023-02-26T09:38:16;8.18;;;1.80;;
55497;SDS011;41357;52.806;18.268;2023-02-26T09:40:50;5.07;;;2.40;;
55497;SDS011;41357;52.806;18.268;2023-02-26T09:43:34;4.75;;;1.60;;
55497;SDS011;41357;52.806;18.268;2023-02-26T09:46:05;11.40;;;3.38;;
55497;SDS011;41357;52.806;18.268;2023-02-26T09:48:35;7.68;;;2.63;;
55497;SDS011;41357;52.806;18.268;2023-02-26T09:51:03;11.25;;;1.85;;
55497;SDS011;41357;52.806;18.268;2023-02-26T09:53:31;31.00;;;2.30;;
55497;SDS011;41357;52.806;18.268;2023-02-26T09:56:41;7.75;;;3.05;;
55497;SDS011;41357;52.806;18.268;2023-02-26T09:58:48;5.75;;;2.00;;
55497;SDS011;41357;52.806;18.268;2023-02-26T10:09:37;7.68;;;2.05;;
55497;SDS011;41357;52.806;18.268;2023-02-26T10:12:09;9.18;;;2.22;;
55497;SDS011;41357;52.806;18.268;2023-02-26T10:14:39;5.63;;;2.42;;
55497;SDS011;41357;52.806;18.268;2023-02-26T10:17:11;5.35;;;1.95;;
55497;SDS011;41357;52.806;18.268;2023-02-26T10:19:41;3.97;;;1.73;;
55497;SDS011;41357;52.806;18.268;2023-02-26T10:22:15;4.88;;;2.35;;
55497;SDS011;41357;52.806;18.268;2023-02-26T10:24:50;5.75;;;1.40;;
55497;SDS011;41357;52.806;18.268;2023-02-26T10:27:19;3.38;;;1.52;;
55497;SDS011;41357;52.806;18.268;2023-02-26T10:32:19;6.07;;;2.80;;
55497;SDS011;41357;52.806;18.268;2023-02-26T10:40:42;3.67;;;1.17;;
55497;SDS011;41357;52.806;18.268;2023-02-26T10:42:53;3.72;;;1.73;;
55497;SDS011;41357;52.806;18.268;2023-02-26T10:48:01;2.72;;;1.08;;
55497;SDS011;41357;52.806;18.268;2023-02-26T10:50:30;1.95;;;0.70;;
55497;SDS011;41357;52.806;18.268;2023-02-26T10:52:56;4.07;;;1.15;;
55497;SDS011;41357;52.806;18.268;2023-02-26T10:58:03;2.15;;;1.05;;
55497;SDS011;41357;52.806;18.268;2023-02-26T11:00:29;5.78;;;1.30;;
55497;SDS011;41357;52.806;18.268;2023-02-26T11:02:55;3.10;;;1.52;;
55497;SDS011;41357;52.806;18.268;2023-02-26T11:05:26;4.30;;;0.88;;
55497;SDS011;41357;52.806;18.268;2023-02-26T11:10:21;1.80;;;0.70;;
55497;SDS011;41357;52.806;18.268;2023-02-26T11:12:48;9.50;;;1.02;;
55497;SDS011;41357;52.806;18.268;2023-02-26T11:15:16;4.97;;;1.20;;
55497;SDS011;41357;52.806;18.268;2023-02-26T11:17:44;3.08;;;0.98;;
55497;SDS011;41357;52.806;18.268;2023-02-26T11:20:18;6.65;;;1.67;;
55497;SDS011;41357;52.806;18.268;2023-02-26T11:22:47;5.38;;;0.85;;
55497;SDS011;41357;52.806;18.268;2023-02-26T11:25:16;4.82;;;1.30;;
55497;SDS011;41357;52.806;18.268;2023-02-26T11:27:43;4.70;;;1.85;;
55497;SDS011;41357;52.806;18.268;2023-02-26T11:30:20;4.95;;;1.50;;
55497;SDS011;41357;52.806;18.268;2023-02-26T11:32:49;3.90;;;1.10;;
55497;SDS011;41357;52.806;18.268;2023-02-26T11:35:16;4.28;;;1.33;;
55497;SDS011;41357;52.806;18.268;2023-02-26T11:37:46;4.50;;;1.00;;
55497;SDS011;41357;52.806;18.268;2023-02-26T11:42:50;3.35;;;1.20;;
55497;SDS011;41357;52.806;18.268;2023-02-26T11:45:17;4.30;;;1.05;;
55497;SDS011;41357;52.806;18.268;2023-02-26T11:47:45;4.35;;;1.20;;
55497;SDS011;41357;52.806;18.268;2023-02-26T11:50:17;4.40;;;0.77;;
55497;SDS011;41357;52.806;18.268;2023-02-26T11:52:44;6.88;;;1.60;;
55497;SDS011;41357;52.806;18.268;2023-02-26T11:55:18;5.10;;;2.10;;
55497;SDS011;41357;52.806;18.268;2023-02-26T11:57:45;5.53;;;2.33;;
55497;SDS011;41357;52.806;18.268;2023-02-26T12:00:19;8.25;;;2.55;;
55497;SDS011;41357;52.806;18.268;2023-02-26T12:02:45;7.18;;;1.88;;
55497;SDS011;41357;52.806;18.268;2023-02-26T12:05:13;5.72;;;2.22;;
55497;SDS011;41357;52.806;18.268;2023-02-26T12:07:40;5.47;;;1.65;;
55497;SDS011;41357;52.806;18.268;2023-02-26T12:10:14;4.60;;;1.45;;
55497;SDS011;41357;52.806;18.268;2023-02-26T12:15:24;4.65;;;1.77;;
55497;SDS011;41357;52.806;18.268;2023-02-26T12:23:12;5.57;;;2.38;;
55497;SDS011;41357;52.806;18.268;2023-02-26T12:28:28;6.43;;;0.98;;
55497;SDS011;41357;52.806;18.268;2023-02-26T12:39:31;5.45;;;1.52;;
55497;SDS011;41357;52.806;18.268;2023-02-26T12:47:31;11.13;;;3.28;;
55497;SDS011;41357;52.806;18.268;2023-02-26T12:49:50;19.15;;;4.95;;
55497;SDS011;41357;52.806;18.268;2023-02-26T12:52:28;9.38;;;2.25;;
55497;SDS011;41357;52.806;18.268;2023-02-26T13:08:31;7.93;;;1.63;;
55497;SDS011;41357;52.806;18.268;2023-02-26T13:21:47;2.00;;;1.27;;
55497;SDS011;41357;52.806;18.268;2023-02-26T13:24:14;2.53;;;0.85;;
55497;SDS011;41357;52.806;18.268;2023-02-26T13:26:42;6.95;;;1.95;;
55497;SDS011;41357;52.806;18.268;2023-02-26T13:29:42;8.40;;;1.90;;
55497;SDS011;41357;52.806;18.268;2023-02-26T13:32:01;10.27;;;3.47;;
55497;SDS011;41357;52.806;18.268;2023-02-26T13:36:58;5.75;;;2.20;;
55497;SDS011;41357;52.806;18.268;2023-02-26T13:39:37;7.28;;;2.60;;
55497;SDS011;41357;52.806;18.268;2023-02-26T13:50:02;7.95;;;2.72;;
55497;SDS011;41357;52.806;18.268;2023-02-26T13:52:31;7.15;;;2.83;;
55497;SDS011;41357;52.806;18.268;2023-02-26T13:54:58;5.25;;;1.85;;
55497;SDS011;41357;52.806;18.268;2023-02-26T14:02:54;8.93;;;2.58;;
55497;SDS011;41357;52.806;18.268;2023-02-26T14:13:19;7.55;;;2.38;;
55497;SDS011;41357;52.806;18.268;2023-02-26T14:15:52;6.25;;;2.53;;
55497;SDS011;41357;52.806;18.268;2023-02-26T14:18:19;8.10;;;3.08;;
55497;SDS011;41357;52.806;18.268;2023-02-26T14:20:45;9.93;;;4.63;;
55497;SDS011;41357;52.806;18.268;2023-02-26T14:23:24;9.73;;;4.40;;
55497;SDS011;41357;52.806;18.268;2023-02-26T14:25:55;4.20;;;1.70;;
55497;SDS011;41357;52.806;18.268;2023-02-26T14:33:41;6.32;;;2.22;;
55497;SDS011;41357;52.806;18.268;2023-02-26T14:36:13;8.02;;;2.28;;
55497;SDS011;41357;52.806;18.268;2023-02-26T14:38:40;6.88;;;2.83;;
55497;SDS011;41357;52.806;18.268;2023-02-26T14:41:12;9.55;;;2.72;;
55497;SDS011;41357;52.806;18.268;2023-02-26T14:43:43;4.43;;;1.63;;
55497;SDS011;41357;52.806;18.268;2023-02-26T14:46:10;7.55;;;2.90;;
55497;SDS011;41357;52.806;18.268;2023-02-26T14:48:37;5.47;;;2.28;;
55497;SDS011;41357;52.806;18.268;2023-02-26T14:51:11;5.55;;;1.95;;
55497;SDS011;41357;52.806;18.268;2023-02-26T14:53:59;9.30;;;2.50;;
55497;SDS011;41357;52.806;18.268;2023-02-26T14:56:37;2.67;;;1.17;;
55497;SDS011;41357;52.806;18.268;2023-02-26T14:59:11;3.97;;;1.90;;
55497;SDS011;41357;52.806;18.268;2023-02-26T15:15:05;3.78;;;1.70;;
55497;SDS011;41357;52.806;18.268;2023-02-26T15:25:28;4.68;;;2.28;;
55497;SDS011;41357;52.806;18.268;2023-02-26T15:27:55;10.60;;;2.35;;
55497;SDS011;41357;52.806;18.268;2023-02-26T15:30:21;7.43;;;2.42;;
55497;SDS011;41357;52.806;18.268;2023-02-26T15:32:48;5.88;;;2.47;;
55497;SDS011;41357;52.806;18.268;2023-02-26T15:35:18;11.63;;;4.57;;
55497;SDS011;41357;52.806;18.268;2023-02-26T15:37:56;13.50;;;6.25;;
55497;SDS011;41357;52.806;18.268;2023-02-26T15:40:23;10.70;;;4.75;;
55497;SDS011;41357;52.806;18.268;2023-02-26T15:42:50;9.68;;;3.65;;
55497;SDS011;41357;52.806;18.268;2023-02-26T15:47:45;11.10;;;4.78;;
55497;SDS011;41357;52.806;18.268;2023-02-26T15:50:13;6.75;;;3.80;;
55497;SDS011;41357;52.806;18.268;2023-02-26T15:52:41;8.73;;;4.40;;
55497;SDS011;41357;52.806;18.268;2023-02-26T15:55:07;10.38;;;4.32;;
55497;SDS011;41357;52.806;18.268;2023-02-26T15:57:33;13.25;;;6.10;;
55497;SDS011;41357;52.806;18.268;2023-02-26T16:00:04;7.88;;;2.97;;
55497;SDS011;41357;52.806;18.268;2023-02-26T16:02:32;7.53;;;2.75;;
55497;SDS011;41357;52.806;18.268;2023-02-26T16:05:00;7.85;;;3.25;;
55497;SDS011;41357;52.806;18.268;2023-02-26T16:07:26;11.25;;;3.45;;
55497;SDS011;41357;52.806;18.268;2023-02-26T16:09:53;9.95;;;3.45;;
55497;SDS011;41357;52.806;18.268;2023-02-26T16:12:29;8.30;;;3.28;;
55497;SDS011;41357;52.806;18.268;2023-02-26T16:14:58;9.50;;;3.22;;
55497;SDS011;41357;52.806;18.268;2023-02-26T16:17:26;10.63;;;2.67;;
55497;SDS011;41357;52.806;18.268;2023-02-26T16:19:53;8.35;;;2.90;;
55497;SDS011;41357;52.806;18.268;2023-02-26T16:22:37;6.75;;;2.25;;
55497;SDS011;41357;52.806;18.268;2023-02-26T16:25:11;7.40;;;2.35;;
55497;SDS011;41357;52.806;18.268;2023-02-26T16:27:39;10.35;;;3.25;;
55497;SDS011;41357;52.806;18.268;2023-02-26T16:30:07;10.88;;;2.83;;
55497;SDS011;41357;52.806;18.268;2023-02-26T16:32:39;9.32;;;3.25;;
55497;SDS011;41357;52.806;18.268;2023-02-26T16:35:19;11.70;;;4.15;;
55497;SDS011;41357;52.806;18.268;2023-02-26T16:37:50;11.07;;;3.15;;
55497;SDS011;41357;52.806;18.268;2023-02-26T16:40:23;7.60;;;2.42;;
55497;SDS011;41357;52.806;18.268;2023-02-26T16:45:18;6.72;;;1.80;;
55497;SDS011;41357;52.806;18.268;2023-02-26T16:47:46;4.82;;;2.33;;
55497;SDS011;41357;52.806;18.268;2023-02-26T16:50:33;6.88;;;2.38;;
55497;SDS011;41357;52.806;18.268;2023-02-26T16:53:00;8.90;;;2.90;;
55497;SDS011;41357;52.806;18.268;2023-02-26T16:55:29;7.03;;;2.85;;
55497;SDS011;41357;52.806;18.268;2023-02-26T16:57:56;9.68;;;3.03;;
55497;SDS011;41357;52.806;18.268;2023-02-26T17:00:24;17.15;;;5.50;;
55497;SDS011;41357;52.806;18.268;2023-02-26T17:02:57;9.77;;;4.25;;
55497;SDS011;41357;52.806;18.268;2023-02-26T17:05:25;11.52;;;4.82;;
55497;SDS011;41357;52.806;18.268;2023-02-26T17:08:14;29.90;;;8.60;;
55497;SDS011;41357;52.806;18.268;2023-02-26T17:11:00;10.73;;;4.38;;
55497;SDS011;41357;52.806;18.268;2023-02-26T17:13:30;14.45;;;4.53;;
55497;SDS011;41357;52.806;18.268;2023-02-26T17:16:07;13.25;;;3.17;;
55497;SDS011;41357;52.806;18.268;2023-02-26T17:18:33;6.07;;;2.78;;
55497;SDS011;41357;52.806;18.268;2023-02-26T17:20:59;9.85;;;2.78;;
55497;SDS011;41357;52.806;18.268;2023-02-26T17:23:30;7.88;;;2.67;;
55497;SDS011;41357;52.806;18.268;2023-02-26T17:25:57;9.50;;;3.22;;
55497;SDS011;41357;52.806;18.268;2023-02-26T17:28:27;9.55;;;4.65;;
55497;SDS011;41357;52.806;18.268;2023-02-26T17:30:53;14.57;;;5.43;;
55497;SDS011;41357;52.806;18.268;2023-02-26T17:33:20;11.65;;;3.60;;
55497;SDS011;41357;52.806;18.268;2023-02-26T17:35:46;12.82;;;4.20;;